Pagrindinis puslapis
METAR-TAF:

METAR-TAF

Oro uostai :

Damaskas, Sirija

platuma: 33-25N, ilguma: 036-31E, Aukštis: 608 m

Dabartinis oras

Ataskaita buvo paskelbta 58 minutes, ne 17:00 UTC
Vėjas 16 kt iš Vakarų/Pietvakarių
Temperatūra 24°C
Drėgmė 41%
Slėgis 1012 hPa
Matomumas 10 km arba daugiau
nėra debesų žemiau 1500 m ir nėra kamuolinių lietaus debesų

METAR: OSDI 151700Z 25016KT CAVOK 24/10 Q1012

Laikas: 20:58 (17:58 UTC)

Prognozė

Prognozė galioja nuo 15 metu 18 UTC su 16 metu 24 UTC
Vėjas 10 kt iš Pietvakarių
Matomumas 10 km arba daugiau
nėra debesų žemiau 1500 m ir nėra kamuolinių lietaus debesų
Laikinai
nuo 16 metu 09 UTC su 16 metu 18 UTC
Vėjas 15 kt iš Vakarų/Pietvakarių su gūsio iki 25 kt
Matomumas: 8000 m
Mažai debesys ne aukštis 3000 ft

TAF: OSDI 1518/1624 22010KT CAVOK TEMPO 1609/1618 25015G25KT 8000 FEW030

Orai ataskaitas ir orų prognozės (METAR, TAF).

turimą stotys yra geltonos ir raudonos taškus žemėlapyje.

Perkelti pele per norėdami pamatyti stoties vardą.

Tada spustelėkite, norėdami matyti oro stebėjimo ir prognozės.

Norėdami pakeisti žemėlapį: spustelėkite ant žalios mygtukų su juodo kryžiaus žemyn,; žalią mygtuką su brūkšneliu, jei norite nutolinti; arba žalių rodyklių gretimoms žemėlapius.


METAR-TAF: